Time;durP1;ratioP1;P1;durP2;ratioP2;P2;SDS_P1;SDS_P2;PMS_P1;PMS_P2;Temp;Humidity;BMP_temperature;BMP_pressure;BME280_temperature;BME280_humidity;BME280_pressure;Samples;Min_cycle;Max_cycle;Signal;HPM_P1;HPM_P2
2024/01/22 00:00:13;;;;;;;3.37;2.40;;;;;;;;;;6221331;23;20428;-85
2024/01/22 00:02:42;;;;;;;4.47;1.70;;;;;;;;;;6224508;23;20405;-86
2024/01/22 00:05:12;;;;;;;2.40;2.00;;;;;;;;;;6222265;23;20418;-86
2024/01/22 00:07:38;;;;;;;2.63;2.27;;;;;;;;;;6223674;23;20378;-86
2024/01/22 00:10:07;;;;;;;2.20;1.60;;;;;;;;;;6221690;23;20374;-85
2024/01/22 00:12:37;;;;;;;1.27;1.17;;;;;;;;;;6226112;23;20381;-86
2024/01/22 00:15:03;;;;;;;3.57;2.13;;;;;;;;;;6250730;22;20386;-86
2024/01/22 00:17:29;;;;;;;5.30;1.70;;;;;;;;;;6222841;23;20374;-85
2024/01/22 00:19:55;;;;;;;1.47;1.30;;;;;;;;;;6248852;23;20448;-86
2024/01/22 00:22:21;;;;;;;3.07;1.50;;;;;;;;;;6223745;22;20358;-86
2024/01/22 00:24:48;;;;;;;4.63;2.10;;;;;;;;;;6226299;23;20449;-85
2024/01/22 00:27:14;;;;;;;1.70;1.60;;;;;;;;;;6221142;23;20409;-86
2024/01/22 00:29:40;;;;;;;1.27;1.17;;;;;;;;;;6223065;23;20370;-85
2024/01/22 00:32:06;;;;;;;1.60;1.50;;;;;;;;;;6221891;22;20727;-86
2024/01/22 00:34:32;;;;;;;5.00;2.00;;;;;;;;;;6222995;23;20384;-86
2024/01/22 00:36:58;;;;;;;2.60;1.60;;;;;;;;;;6249324;23;20366;-86
2024/01/22 00:39:24;;;;;;;1.67;1.57;;;;;;;;;;6224552;22;20581;-86
2024/01/22 00:41:50;;;;;;;2.30;1.70;;;;;;;;;;6248675;23;20370;-86
2024/01/22 00:44:16;;;;;;;2.70;1.40;;;;;;;;;;6252350;23;20418;-86
2024/01/22 00:46:42;;;;;;;1.77;1.50;;;;;;;;;;6223539;23;20398;-85
2024/01/22 00:49:08;;;;;;;2.43;2.20;;;;;;;;;;6223529;23;20408;-86
2024/01/22 00:51:34;;;;;;;1.63;1.33;;;;;;;;;;6222914;23;20421;-86
2024/01/22 00:54:00;;;;;;;2.30;2.10;;;;;;;;;;6223595;22;20457;-85
2024/01/22 00:56:26;;;;;;;1.73;1.60;;;;;;;;;;6224316;23;20370;-86
2024/01/22 00:58:52;;;;;;;2.53;1.67;;;;;;;;;;6220495;23;20378;-86
2024/01/22 01:01:18;;;;;;;2.60;1.73;;;;;;;;;;6223194;23;20374;-86
2024/01/22 01:03:44;;;;;;;1.50;1.40;;;;;;;;;;6222607;23;20425;-86
2024/01/22 01:06:10;;;;;;;2.20;1.27;;;;;;;;;;6222178;23;20889;-85
2024/01/22 01:08:36;;;;;;;1.30;1.20;;;;;;;;;;6222266;23;20362;-85
2024/01/22 01:11:02;;;;;;;1.93;1.60;;;;;;;;;;6222575;22;20413;-85
2024/01/22 01:13:28;;;;;;;2.50;1.60;;;;;;;;;;6219700;23;20379;-85
2024/01/22 01:15:54;;;;;;;2.20;1.27;;;;;;;;;;6223650;23;20378;-86
2024/01/22 01:18:20;;;;;;;1.87;1.77;;;;;;;;;;6219989;23;21081;-86
2024/01/22 01:20:46;;;;;;;1.47;1.37;;;;;;;;;;6222959;23;20378;-86
2024/01/22 01:23:12;;;;;;;2.13;1.70;;;;;;;;;;6224661;23;20381;-86
2024/01/22 01:25:38;;;;;;;2.40;2.20;;;;;;;;;;6224749;23;20421;-86
2024/01/22 01:28:04;;;;;;;1.63;1.53;;;;;;;;;;6230776;23;20398;-86
2024/01/22 01:30:30;;;;;;;2.00;1.30;;;;;;;;;;6246744;23;20374;-84
2024/01/22 01:32:56;;;;;;;2.17;1.97;;;;;;;;;;6247216;23;20405;-84
2024/01/22 01:35:22;;;;;;;1.90;1.70;;;;;;;;;;6247491;23;20382;-85
2024/01/22 01:37:48;;;;;;;4.33;1.93;;;;;;;;;;6269849;22;20844;-85
2024/01/22 01:40:14;;;;;;;1.37;1.27;;;;;;;;;;6247505;23;20909;-85
2024/01/22 01:42:44;;;;;;;3.50;1.73;;;;;;;;;;6245476;23;20389;-85
2024/01/22 01:45:16;;;;;;;2.03;1.93;;;;;;;;;;6251186;22;20433;-86
2024/01/22 01:47:42;;;;;;;1.50;1.40;;;;;;;;;;6248740;23;20389;-86
2024/01/22 01:50:08;;;;;;;2.53;1.33;;;;;;;;;;6247009;23;20386;-87
2024/01/22 01:52:34;;;;;;;1.60;1.17;;;;;;;;;;6248483;23;20506;-86
2024/01/22 01:55:01;;;;;;;2.07;1.73;;;;;;;;;;6248057;23;20386;-87
2024/01/22 01:57:27;;;;;;;3.20;2.50;;;;;;;;;;6245807;23;21050;-86
2024/01/22 01:59:53;;;;;;;2.97;1.80;;;;;;;;;;6248645;23;20389;-87
2024/01/22 02:02:20;;;;;;;2.83;1.63;;;;;;;;;;6273341;22;20409;-86
2024/01/22 02:04:46;;;;;;;4.17;1.83;;;;;;;;;;6273279;22;20425;-86
2024/01/22 02:07:12;;;;;;;4.20;1.30;;;;;;;;;;6275807;22;20374;-86
2024/01/22 02:10:07;;;;;;;3.97;2.20;;;;;;;;;;6248666;23;20416;-86
2024/01/22 02:12:33;;;;;;;1.63;1.50;;;;;;;;;;6228194;23;20439;-86
2024/01/22 02:14:59;;;;;;;3.47;1.70;;;;;;;;;;6246306;23;21167;-86
2024/01/22 02:17:25;;;;;;;1.93;1.03;;;;;;;;;;6277625;22;20370;-86
2024/01/22 02:19:51;;;;;;;2.33;1.60;;;;;;;;;;6247931;23;20426;-86
2024/01/22 02:22:17;;;;;;;0.97;0.97;;;;;;;;;;6249197;23;20838;-86
2024/01/22 02:24:43;;;;;;;1.77;1.40;;;;;;;;;;6273464;22;20417;-86
2024/01/22 02:27:09;;;;;;;1.73;1.63;;;;;;;;;;6247409;23;20379;-86
2024/01/22 02:29:35;;;;;;;1.13;1.07;;;;;;;;;;6246348;23;20357;-85
2024/01/22 02:32:01;;;;;;;2.13;1.90;;;;;;;;;;6223145;23;20382;-85
2024/01/22 02:34:27;;;;;;;2.10;1.47;;;;;;;;;;6248601;23;20374;-86
2024/01/22 02:36:53;;;;;;;3.93;1.93;;;;;;;;;;6223203;23;20473;-86
2024/01/22 02:39:19;;;;;;;2.27;1.83;;;;;;;;;;6222525;23;20462;-85
2024/01/22 02:41:45;;;;;;;1.80;1.70;;;;;;;;;;6221512;22;20765;-86
2024/01/22 02:44:11;;;;;;;3.27;2.90;;;;;;;;;;6220967;23;20433;-86
2024/01/22 02:46:37;;;;;;;2.00;1.80;;;;;;;;;;6223011;23;20440;-86
2024/01/22 02:49:03;;;;;;;1.43;1.33;;;;;;;;;;6247270;22;20366;-86
2024/01/22 02:51:29;;;;;;;2.57;1.47;;;;;;;;;;6224841;23;21000;-85
2024/01/22 02:53:55;;;;;;;2.67;1.60;;;;;;;;;;6223821;23;20381;-86
2024/01/22 02:56:21;;;;;;;5.30;2.10;;;;;;;;;;6222743;23;21090;-85
2024/01/22 02:58:47;;;;;;;3.07;1.80;;;;;;;;;;6248617;23;20362;-86
2024/01/22 03:01:13;;;;;;;1.77;1.50;;;;;;;;;;6223526;23;20405;-85
2024/01/22 03:03:40;;;;;;;3.27;1.80;;;;;;;;;;6224394;23;20375;-85
2024/01/22 03:06:07;;;;;;;3.00;2.33;;;;;;;;;;6247459;23;20418;-85
2024/01/22 03:08:33;;;;;;;3.17;1.93;;;;;;;;;;6251880;22;20410;-86
2024/01/22 03:10:59;;;;;;;2.80;2.00;;;;;;;;;;6223341;23;20425;-85
2024/01/22 03:13:25;;;;;;;1.40;1.30;;;;;;;;;;6225148;23;20382;-85
2024/01/22 03:15:51;;;;;;;2.23;2.03;;;;;;;;;;6223529;23;20363;-85
2024/01/22 03:18:17;;;;;;;1.80;1.70;;;;;;;;;;6226116;23;20375;-86
2024/01/22 03:20:43;;;;;;;2.17;1.40;;;;;;;;;;6222986;23;20428;-85
2024/01/22 03:23:09;;;;;;;4.93;2.13;;;;;;;;;;6226757;23;20386;-87
2024/01/22 03:25:35;;;;;;;8.13;2.60;;;;;;;;;;6224902;23;21012;-87
2024/01/22 03:28:02;;;;;;;7.70;5.10;;;;;;;;;;6223942;23;20470;-85
2024/01/22 03:30:28;;;;;;;5.10;2.53;;;;;;;;;;6223040;23;20378;-85
2024/01/22 03:32:54;;;;;;;7.63;2.10;;;;;;;;;;6226378;23;20382;-85
2024/01/22 03:35:20;;;;;;;1.60;1.50;;;;;;;;;;6246835;23;20365;-85
2024/01/22 03:37:46;;;;;;;2.23;1.70;;;;;;;;;;6224021;23;20373;-85
2024/01/22 03:40:12;;;;;;;4.33;2.20;;;;;;;;;;6247639;22;20366;-85
2024/01/22 03:42:38;;;;;;;3.13;2.70;;;;;;;;;;6221120;23;20386;-85
2024/01/22 03:45:04;;;;;;;2.30;2.10;;;;;;;;;;6218498;23;20426;-84
2024/01/22 03:47:30;;;;;;;1.80;1.70;;;;;;;;;;6249178;23;20367;-86
2024/01/22 03:49:56;;;;;;;1.90;1.40;;;;;;;;;;6222321;23;20381;-86
2024/01/22 03:52:23;;;;;;;5.67;1.90;;;;;;;;;;6221601;22;20390;-86
2024/01/22 03:54:49;;;;;;;4.17;1.80;;;;;;;;;;6224226;23;20361;-86
2024/01/22 03:57:15;;;;;;;2.60;1.87;;;;;;;;;;6221381;23;20373;-86
2024/01/22 03:59:42;;;;;;;1.37;1.27;;;;;;;;;;6246810;23;20367;-87
2024/01/22 04:02:08;;;;;;;2.67;2.10;;;;;;;;;;6222447;23;21040;-86
2024/01/22 04:04:34;;;;;;;2.57;2.20;;;;;;;;;;6224597;23;20426;-87
2024/01/22 04:07:00;;;;;;;4.53;2.00;;;;;;;;;;6221798;23;20914;-86
2024/01/22 04:09:26;;;;;;;2.23;1.70;;;;;;;;;;6225820;23;20446;-86
2024/01/22 04:11:52;;;;;;;2.10;1.90;;;;;;;;;;6222497;23;20409;-86
2024/01/22 04:14:18;;;;;;;1.30;1.20;;;;;;;;;;6223213;23;20461;-86
2024/01/22 04:16:44;;;;;;;3.03;1.90;;;;;;;;;;6220810;23;20430;-86
2024/01/22 04:19:10;;;;;;;2.70;1.70;;;;;;;;;;6222430;23;20486;-86
2024/01/22 04:21:43;;;;;;;2.03;1.50;;;;;;;;;;6221254;23;20408;-87
2024/01/22 04:24:09;;;;;;;2.90;1.70;;;;;;;;;;6224580;23;20366;-86
2024/01/22 04:26:35;;;;;;;1.73;1.63;;;;;;;;;;6247172;23;20366;-86
2024/01/22 04:29:01;;;;;;;3.33;2.23;;;;;;;;;;6223208;23;20395;-86
2024/01/22 04:31:27;;;;;;;2.60;1.77;;;;;;;;;;6219353;23;20378;-85
2024/01/22 04:33:54;;;;;;;1.40;1.30;;;;;;;;;;6221155;23;20933;-86
2024/01/22 04:36:20;;;;;;;2.87;2.23;;;;;;;;;;6220800;23;20425;-86
2024/01/22 04:38:46;;;;;;;2.10;1.53;;;;;;;;;;6224058;23;20394;-86
2024/01/22 04:41:12;;;;;;;1.50;1.40;;;;;;;;;;6222425;23;20433;-86
2024/01/22 04:43:38;;;;;;;3.10;2.10;;;;;;;;;;6221158;23;20453;-86
2024/01/22 04:46:04;;;;;;;2.37;2.17;;;;;;;;;;6221923;23;20430;-86
2024/01/22 04:48:30;;;;;;;1.37;1.10;;;;;;;;;;6247738;23;20416;-86
2024/01/22 04:50:56;;;;;;;1.80;1.70;;;;;;;;;;6222205;22;20390;-86
2024/01/22 04:53:22;;;;;;;3.03;2.50;;;;;;;;;;6245431;23;20377;-85
2024/01/22 04:55:51;;;;;;;2.20;2.00;;;;;;;;;;6224212;23;20377;-86
2024/01/22 04:58:17;;;;;;;2.03;1.50;;;;;;;;;;6248180;23;20449;-86
2024/01/22 05:00:43;;;;;;;2.40;1.93;;;;;;;;;;6220876;23;20406;-86
2024/01/22 05:03:09;;;;;;;4.20;2.37;;;;;;;;;;6224769;23;20378;-86
2024/01/22 05:05:35;;;;;;;2.90;1.93;;;;;;;;;;6221304;23;20422;-88
2024/01/22 05:08:01;;;;;;;2.23;2.03;;;;;;;;;;6222601;23;20872;-89
2024/01/22 05:10:27;;;;;;;1.57;1.47;;;;;;;;;;6223407;23;20453;-88
2024/01/22 05:12:53;;;;;;;4.13;2.40;;;;;;;;;;6226390;23;20386;-89
2024/01/22 05:15:19;;;;;;;1.53;1.43;;;;;;;;;;6222456;23;20386;-89
2024/01/22 05:17:46;;;;;;;1.90;1.80;;;;;;;;;;6246749;23;20860;-90
2024/01/22 05:20:12;;;;;;;2.13;1.93;;;;;;;;;;6221733;22;21097;-84
2024/01/22 05:22:38;;;;;;;2.03;1.63;;;;;;;;;;6225367;23;20389;-86
2024/01/22 05:25:06;;;;;;;2.40;2.20;;;;;;;;;;6249376;23;20449;-85
2024/01/22 05:27:33;;;;;;;2.03;1.93;;;;;;;;;;6228209;23;20401;-86
2024/01/22 05:29:59;;;;;;;2.67;2.20;;;;;;;;;;6223870;23;20874;-85
2024/01/22 05:32:25;;;;;;;3.37;1.70;;;;;;;;;;6225314;23;20374;-87
2024/01/22 05:34:51;;;;;;;2.20;1.93;;;;;;;;;;6225009;22;20386;-86
2024/01/22 05:37:17;;;;;;;3.40;3.10;;;;;;;;;;6224587;23;20448;-86
2024/01/22 05:39:43;;;;;;;2.60;2.40;;;;;;;;;;6223228;23;20394;-86
2024/01/22 05:42:09;;;;;;;3.63;1.93;;;;;;;;;;6223322;22;20456;-87
2024/01/22 05:44:34;;;;;;;1.57;1.47;;;;;;;;;;6223555;23;20421;-86
2024/01/22 05:47:01;;;;;;;3.17;1.90;;;;;;;;;;6222360;23;20444;-87
2024/01/22 05:49:27;;;;;;;2.40;2.20;;;;;;;;;;6223821;23;20382;-86
2024/01/22 05:51:53;;;;;;;2.23;1.90;;;;;;;;;;6223922;23;20378;-86
2024/01/22 05:54:19;;;;;;;1.93;1.73;;;;;;;;;;6225229;23;20480;-86
2024/01/22 05:56:45;;;;;;;4.50;2.47;;;;;;;;;;6223801;23;20370;-85
2024/01/22 05:59:13;;;;;;;2.13;1.70;;;;;;;;;;6229141;23;20379;-84
2024/01/22 06:01:39;;;;;;;3.37;2.60;;;;;;;;;;6222337;23;20382;-86
2024/01/22 06:04:06;;;;;;;2.03;1.83;;;;;;;;;;6224218;23;20433;-86
2024/01/22 06:06:32;;;;;;;2.17;2.07;;;;;;;;;;6248868;23;20373;-85
2024/01/22 06:08:58;;;;;;;3.53;2.17;;;;;;;;;;6224472;23;20473;-88
2024/01/22 06:11:26;;;;;;;2.17;1.90;;;;;;;;;;6222822;23;20507;-87
2024/01/22 06:13:52;;;;;;;3.57;2.67;;;;;;;;;;6228385;23;20389;-88
2024/01/22 06:16:18;;;;;;;4.07;2.20;;;;;;;;;;6224115;23;20382;-88
2024/01/22 06:18:45;;;;;;;2.77;2.20;;;;;;;;;;6248472;23;20351;-88
2024/01/22 06:21:12;;;;;;;4.50;2.30;;;;;;;;;;6224551;23;20393;-88
2024/01/22 06:23:38;;;;;;;5.90;2.13;;;;;;;;;;6225608;23;20847;-88
2024/01/22 06:26:05;;;;;;;3.43;2.80;;;;;;;;;;6222004;23;20418;-88
2024/01/22 06:28:31;;;;;;;1.70;1.40;;;;;;;;;;6228285;23;21107;-87
2024/01/22 06:30:57;;;;;;;1.67;1.57;;;;;;;;;;6223308;23;20941;-88
2024/01/22 06:33:23;;;;;;;1.70;1.60;;;;;;;;;;6223719;23;20378;-88
2024/01/22 06:35:49;;;;;;;2.80;2.20;;;;;;;;;;6222223;23;20391;-88
2024/01/22 06:38:18;;;;;;;3.50;3.00;;;;;;;;;;6223974;23;21017;-89
2024/01/22 06:40:44;;;;;;;2.50;2.30;;;;;;;;;;6223755;23;20392;-88
2024/01/22 06:43:10;;;;;;;3.33;1.87;;;;;;;;;;6160524;23;20393;-88
2024/01/22 06:45:37;;;;;;;1.40;1.30;;;;;;;;;;6132682;23;20416;-87
2024/01/22 06:48:03;;;;;;;2.07;1.87;;;;;;;;;;6135893;23;20732;-87
2024/01/22 06:50:29;;;;;;;7.03;3.50;;;;;;;;;;6133672;23;20388;-86
2024/01/22 06:52:56;;;;;;;2.30;2.10;;;;;;;;;;6130649;23;20889;-87
2024/01/22 06:55:23;;;;;;;4.20;2.60;;;;;;;;;;6133103;23;20393;-88
2024/01/22 06:57:51;;;;;;;3.00;2.70;;;;;;;;;;6133151;23;20440;-88
2024/01/22 07:00:19;;;;;;;3.07;1.70;;;;;;;;;;6134747;23;20408;-87
2024/01/22 07:02:48;;;;;;;2.40;2.20;;;;;;;;;;6134283;23;20385;-87
2024/01/22 07:05:14;;;;;;;2.00;1.73;;;;;;;;;;6137994;23;21005;-88
2024/01/22 07:07:41;;;;;;;3.53;1.90;;;;;;;;;;6133138;23;21165;-87
2024/01/22 07:10:08;;;;;;;5.67;2.37;;;;;;;;;;6133868;23;20393;-88
2024/01/22 07:12:34;;;;;;;4.40;2.53;;;;;;;;;;6135692;23;20392;-88
2024/01/22 07:15:01;;;;;;;3.23;2.40;;;;;;;;;;6212860;23;20462;-87
2024/01/22 07:17:28;;;;;;;4.67;2.20;;;;;;;;;;6224044;23;20385;-87
2024/01/22 07:19:54;;;;;;;2.53;2.13;;;;;;;;;;6255142;22;20765;-88
2024/01/22 07:22:20;;;;;;;3.07;1.90;;;;;;;;;;6224658;23;20373;-87
2024/01/22 07:24:46;;;;;;;2.03;1.83;;;;;;;;;;6225952;23;20753;-87
2024/01/22 07:27:12;;;;;;;3.90;2.83;;;;;;;;;;6225179;23;20421;-87
2024/01/22 07:29:38;;;;;;;6.17;1.50;;;;;;;;;;6225548;23;20393;-88
2024/01/22 07:32:04;;;;;;;2.13;1.87;;;;;;;;;;6227571;23;20416;-89
2024/01/22 07:34:30;;;;;;;3.10;1.87;;;;;;;;;;6228183;22;20366;-87
2024/01/22 07:36:56;;;;;;;1.73;1.63;;;;;;;;;;6251775;23;20409;-88
2024/01/22 07:39:22;;;;;;;3.20;1.90;;;;;;;;;;6225256;22;20378;-87
2024/01/22 07:41:48;;;;;;;4.13;1.90;;;;;;;;;;6225536;23;20366;-88
2024/01/22 07:44:14;;;;;;;2.70;2.00;;;;;;;;;;6251543;23;20397;-89
2024/01/22 07:46:40;;;;;;;3.00;2.13;;;;;;;;;;6223438;23;20377;-89
2024/01/22 07:49:07;;;;;;;2.77;1.40;;;;;;;;;;6223867;23;20362;-88
2024/01/22 07:51:33;;;;;;;3.30;2.00;;;;;;;;;;6224850;23;20413;-88
2024/01/22 07:53:59;;;;;;;1.93;1.40;;;;;;;;;;6225684;23;20900;-89
2024/01/22 07:56:25;;;;;;;2.63;2.03;;;;;;;;;;6250014;23;20362;-88
2024/01/22 07:58:51;;;;;;;5.23;2.50;;;;;;;;;;6250764;23;20405;-89
2024/01/22 08:01:17;;;;;;;5.03;2.60;;;;;;;;;;6224946;23;20377;-89
2024/01/22 08:03:43;;;;;;;3.30;2.20;;;;;;;;;;6225509;23;20374;-89
2024/01/22 08:06:10;;;;;;;6.70;3.00;;;;;;;;;;6225263;23;21001;-89
2024/01/22 08:08:37;;;;;;;2.70;2.30;;;;;;;;;;6230985;22;20939;-87
2024/01/22 08:11:03;;;;;;;11.53;3.47;;;;;;;;;;6224318;23;20476;-89
2024/01/22 08:13:30;;;;;;;6.97;2.60;;;;;;;;;;6226081;23;20397;-88
2024/01/22 08:15:55;;;;;;;3.30;2.57;;;;;;;;;;6250457;23;20376;-87
2024/01/22 08:18:21;;;;;;;3.50;2.70;;;;;;;;;;6228167;23;20889;-87
2024/01/22 08:20:47;;;;;;;3.93;1.70;;;;;;;;;;6223277;23;20422;-87
2024/01/22 08:23:14;;;;;;;2.23;1.60;;;;;;;;;;6226790;23;20383;-88
2024/01/22 08:25:40;;;;;;;1.70;1.53;;;;;;;;;;6223318;23;20753;-88
2024/01/22 08:28:06;;;;;;;2.10;1.37;;;;;;;;;;6223348;23;20402;-88
2024/01/22 08:30:32;;;;;;;2.33;1.20;;;;;;;;;;6222813;23;20872;-89
2024/01/22 08:32:58;;;;;;;2.27;1.10;;;;;;;;;;6223460;23;20419;-83
2024/01/22 08:35:26;;;;;;;1.67;1.30;;;;;;;;;;6222448;23;20767;-84
2024/01/22 08:37:55;;;;;;;1.00;0.90;;;;;;;;;;6227539;22;21105;-85
2024/01/22 08:40:21;;;;;;;1.37;1.27;;;;;;;;;;6248647;23;20767;-89
2024/01/22 08:42:51;;;;;;;1.27;1.00;;;;;;;;;;6227011;23;20374;-88
2024/01/22 08:45:17;;;;;;;1.27;0.80;;;;;;;;;;6230932;23;20441;-88
2024/01/22 08:47:46;;;;;;;0.80;0.60;;;;;;;;;;6227046;23;20413;-88
2024/01/22 08:50:17;;;;;;;1.73;1.23;;;;;;;;;;6226639;23;20765;-89
2024/01/22 08:52:43;;;;;;;1.20;0.80;;;;;;;;;;6229362;23;20404;-89
2024/01/22 08:55:09;;;;;;;1.67;1.20;;;;;;;;;;6195421;23;20387;-85
2024/01/22 08:57:36;;;;;;;3.50;1.63;;;;;;;;;;6193732;23;20836;-86
2024/01/22 09:00:06;;;;;;;0.93;0.87;;;;;;;;;;6195530;23;20851;-86
2024/01/22 09:02:32;;;;;;;1.00;0.90;;;;;;;;;;6194004;23;20387;-85
2024/01/22 09:04:58;;;;;;;1.00;0.60;;;;;;;;;;6196173;23;20431;-85
2024/01/22 09:07:24;;;;;;;0.80;0.70;;;;;;;;;;6193277;23;20392;-86
2024/01/22 09:09:50;;;;;;;2.17;1.00;;;;;;;;;;6200133;23;20383;-85
2024/01/22 09:12:18;;;;;;;1.80;1.20;;;;;;;;;;6195814;23;20379;-86
2024/01/22 09:14:44;;;;;;;2.40;0.67;;;;;;;;;;6197399;23;20457;-85
2024/01/22 09:17:10;;;;;;;0.77;0.63;;;;;;;;;;6196055;23;20418;-86
2024/01/22 09:19:40;;;;;;;1.20;0.63;;;;;;;;;;6196461;22;20479;-85
2024/01/22 09:22:06;;;;;;;1.80;0.80;;;;;;;;;;6194281;23;20922;-84
2024/01/22 09:24:33;;;;;;;1.57;1.33;;;;;;;;;;6195726;23;20441;-84
2024/01/22 09:26:59;;;;;;;0.73;0.60;;;;;;;;;;6203071;23;20432;-88
2024/01/22 09:29:25;;;;;;;1.33;0.90;;;;;;;;;;6253396;23;20386;-90
2024/01/22 09:31:53;;;;;;;0.87;0.70;;;;;;;;;;6252551;23;20431;-86
2024/01/22 09:34:20;;;;;;;1.70;0.80;;;;;;;;;;6276277;22;20376;-86
2024/01/22 09:36:46;;;;;;;1.97;0.70;;;;;;;;;;6247771;23;20378;-84
2024/01/22 09:39:12;;;;;;;1.03;0.60;;;;;;;;;;6252176;23;20381;-86
2024/01/22 09:41:38;;;;;;;0.70;0.63;;;;;;;;;;6253199;23;20378;-87
2024/01/22 09:44:06;;;;;;;0.73;0.57;;;;;;;;;;6271020;22;20445;-86
2024/01/22 09:46:32;;;;;;;1.20;0.70;;;;;;;;;;6249081;22;20525;-85
2024/01/22 09:48:58;;;;;;;2.00;0.77;;;;;;;;;;6247123;23;20382;-86
2024/01/22 09:51:28;;;;;;;0.70;0.57;;;;;;;;;;6248498;23;20383;-85
2024/01/22 09:53:54;;;;;;;0.80;0.70;;;;;;;;;;6247171;23;20880;-86
2024/01/22 09:56:21;;;;;;;0.70;0.60;;;;;;;;;;6276859;22;20362;-85
2024/01/22 09:58:48;;;;;;;0.93;0.83;;;;;;;;;;6249045;23;20884;-86
2024/01/22 10:01:14;;;;;;;2.23;1.00;;;;;;;;;;6250569;23;20362;-85
2024/01/22 10:03:40;;;;;;;4.17;0.97;;;;;;;;;;6274694;22;20358;-85
2024/01/22 10:06:06;;;;;;;1.17;0.87;;;;;;;;;;6249967;23;20759;-85
2024/01/22 10:08:32;;;;;;;0.80;0.60;;;;;;;;;;6250967;23;20501;-85
2024/01/22 10:10:59;;;;;;;0.80;0.60;;;;;;;;;;6248359;23;20382;-85
2024/01/22 10:13:25;;;;;;;1.20;0.73;;;;;;;;;;6255057;23;20897;-85
2024/01/22 10:15:51;;;;;;;1.00;0.70;;;;;;;;;;6252573;23;20382;-86
2024/01/22 10:18:17;;;;;;;0.70;0.70;;;;;;;;;;6254338;23;20375;-86
2024/01/22 10:20:47;;;;;;;0.60;0.50;;;;;;;;;;6276615;22;20398;-86
2024/01/22 10:23:14;;;;;;;0.90;0.60;;;;;;;;;;6279768;22;20370;-87
2024/01/22 10:25:40;;;;;;;0.73;0.73;;;;;;;;;;6250730;23;20508;-86
2024/01/22 10:28:19;;;;;;;0.77;0.67;;;;;;;;;;6252701;23;20401;-87
2024/01/22 10:30:46;;;;;;;1.63;0.90;;;;;;;;;;6250931;23;20461;-86
2024/01/22 10:33:12;;;;;;;0.77;0.73;;;;;;;;;;6250414;23;20876;-85
2024/01/22 10:35:38;;;;;;;1.23;0.87;;;;;;;;;;6250099;23;20432;-85
2024/01/22 10:38:07;;;;;;;1.13;0.70;;;;;;;;;;6251216;22;20457;-86
2024/01/22 10:40:34;;;;;;;1.00;0.80;;;;;;;;;;6249028;23;20379;-85
2024/01/22 10:43:00;;;;;;;1.77;1.37;;;;;;;;;;6253459;23;20437;-85
2024/01/22 10:45:26;;;;;;;0.80;0.80;;;;;;;;;;6251653;23;20449;-85
2024/01/22 10:47:53;;;;;;;1.00;0.70;;;;;;;;;;6251016;23;20919;-85
2024/01/22 10:50:20;;;;;;;0.70;0.50;;;;;;;;;;6252431;23;20373;-84
2024/01/22 10:52:46;;;;;;;1.07;0.67;;;;;;;;;;6251408;23;20375;-85
2024/01/22 10:55:12;;;;;;;1.43;0.67;;;;;;;;;;6250877;23;20366;-85
2024/01/22 10:57:41;;;;;;;1.40;0.90;;;;;;;;;;6223002;23;20413;-85
2024/01/22 11:00:08;;;;;;;1.10;0.93;;;;;;;;;;6199686;23;20392;-84
2024/01/22 11:02:34;;;;;;;1.10;0.60;;;;;;;;;;6195569;23;20433;-86
2024/01/22 11:05:14;;;;;;;1.00;0.80;;;;;;;;;;6195582;23;20448;-85
2024/01/22 11:07:40;;;;;;;2.03;1.10;;;;;;;;;;6195809;23;20382;-85
2024/01/22 11:10:07;;;;;;;0.80;0.70;;;;;;;;;;6197343;23;20384;-85
2024/01/22 11:12:35;;;;;;;4.23;2.03;;;;;;;;;;6195792;23;20382;-85
2024/01/22 11:15:01;;;;;;;1.90;1.30;;;;;;;;;;6199335;23;20410;-85
2024/01/22 11:17:27;;;;;;;1.00;0.90;;;;;;;;;;6194687;23;20436;-84
2024/01/22 11:19:56;;;;;;;0.77;0.67;;;;;;;;;;6195091;23;20386;-85
2024/01/22 11:22:23;;;;;;;0.97;0.80;;;;;;;;;;6221712;23;20397;-83
2024/01/22 11:25:01;;;;;;;0.70;0.60;;;;;;;;;;6198175;23;20422;-84
2024/01/22 11:27:37;;;;;;;0.90;0.73;;;;;;;;;;6196530;23;20400;-82
2024/01/22 11:30:33;;;;;;;0.97;0.90;;;;;;;;;;6276397;22;20816;-83
2024/01/22 11:32:59;;;;;;;1.07;0.97;;;;;;;;;;6226689;23;20453;-83
2024/01/22 11:35:37;;;;;;;1.17;0.73;;;;;;;;;;6248321;23;20378;-84
2024/01/22 11:38:04;;;;;;;1.00;0.70;;;;;;;;;;6248401;23;20918;-85
2024/01/22 11:40:49;;;;;;;1.10;0.80;;;;;;;;;;6250942;23;20382;-85
2024/01/22 11:43:19;;;;;;;1.07;0.60;;;;;;;;;;6249047;23;20839;-84
2024/01/22 11:45:45;;;;;;;1.20;0.87;;;;;;;;;;6256400;23;20421;-86
2024/01/22 11:51:49;;;;;;;1.03;0.80;;;;;;;;;;6253929;23;20325;-84
2024/01/22 11:54:15;;;;;;;0.70;0.60;;;;;;;;;;6250228;23;20431;-85
2024/01/22 11:56:41;;;;;;;0.70;0.50;;;;;;;;;;6248023;23;20370;-86
2024/01/22 11:59:11;;;;;;;0.87;0.70;;;;;;;;;;6258164;22;20374;-94
2024/01/22 12:01:37;;;;;;;0.60;0.57;;;;;;;;;;6228821;23;20374;-84
2024/01/22 12:04:09;;;;;;;0.80;0.80;;;;;;;;;;6253257;23;20376;-86
2024/01/22 12:06:49;;;;;;;0.80;0.70;;;;;;;;;;6249288;23;20390;-86
2024/01/22 12:09:15;;;;;;;1.37;0.90;;;;;;;;;;6249117;23;20377;-86
2024/01/22 12:11:45;;;;;;;1.10;0.70;;;;;;;;;;6246934;23;20424;-86
2024/01/22 12:14:12;;;;;;;0.67;0.50;;;;;;;;;;6249693;23;20401;-86
2024/01/22 12:16:38;;;;;;;0.80;0.70;;;;;;;;;;6273864;22;20361;-85
2024/01/22 12:19:13;;;;;;;1.00;0.57;;;;;;;;;;6254211;23;20366;-88
2024/01/22 12:21:39;;;;;;;0.70;0.60;;;;;;;;;;6275211;22;20346;-86
2024/01/22 12:24:14;;;;;;;1.90;1.17;;;;;;;;;;6250503;23;20382;-85
2024/01/22 12:26:40;;;;;;;1.70;1.07;;;;;;;;;;6248420;23;20394;-86
2024/01/22 12:29:26;;;;;;;3.00;0.83;;;;;;;;;;6247340;23;20564;-85
2024/01/22 12:32:03;;;;;;;2.40;1.10;;;;;;;;;;6248040;23;20374;-86
2024/01/22 12:34:33;;;;;;;1.27;0.70;;;;;;;;;;6251641;23;20386;-86
2024/01/22 12:37:20;;;;;;;1.13;0.87;;;;;;;;;;6248074;22;20367;-86
2024/01/22 12:39:46;;;;;;;1.10;1.00;;;;;;;;;;6242933;23;20389;-84
2024/01/22 12:42:18;;;;;;;1.00;0.70;;;;;;;;;;6271054;22;20488;-84
2024/01/22 12:45:00;;;;;;;1.10;0.83;;;;;;;;;;6246511;23;20418;-86
2024/01/22 12:47:27;;;;;;;3.27;0.90;;;;;;;;;;6235442;22;20793;-86
2024/01/22 12:49:53;;;;;;;1.07;0.93;;;;;;;;;;6217194;23;20387;-83
2024/01/22 12:52:20;;;;;;;1.23;1.13;;;;;;;;;;6214158;23;20399;-85
2024/01/22 12:54:46;;;;;;;1.80;1.20;;;;;;;;;;6241179;23;20401;-85
2024/01/22 12:57:12;;;;;;;5.00;2.67;;;;;;;;;;6213406;23;20382;-84
2024/01/22 12:59:38;;;;;;;1.93;0.83;;;;;;;;;;6214483;23;20387;-86
2024/01/22 13:02:04;;;;;;;1.60;0.87;;;;;;;;;;6214607;23;20390;-86
2024/01/22 13:04:30;;;;;;;2.47;0.80;;;;;;;;;;6216541;23;20820;-86
2024/01/22 13:06:57;;;;;;;0.97;0.50;;;;;;;;;;6215574;23;20394;-87
2024/01/22 13:09:23;;;;;;;0.83;0.70;;;;;;;;;;6217426;23;20394;-88
2024/01/22 13:11:49;;;;;;;0.93;0.80;;;;;;;;;;6216355;23;20406;-84
2024/01/22 13:14:15;;;;;;;1.23;0.70;;;;;;;;;;6215846;23;20402;-85
2024/01/22 13:16:41;;;;;;;0.77;0.57;;;;;;;;;;6215156;22;20435;-84
2024/01/22 13:19:09;;;;;;;0.90;0.50;;;;;;;;;;6215788;23;20479;-85
2024/01/22 13:21:35;;;;;;;0.70;0.60;;;;;;;;;;6190499;23;20376;-85
2024/01/22 13:24:01;;;;;;;1.23;0.70;;;;;;;;;;6165714;23;20450;-85
2024/01/22 13:26:28;;;;;;;0.80;0.70;;;;;;;;;;6172919;23;20487;-84
2024/01/22 13:28:55;;;;;;;2.20;0.60;;;;;;;;;;6178781;23;20409;-85
2024/01/22 13:31:21;;;;;;;0.80;0.60;;;;;;;;;;6178397;23;20379;-84
2024/01/22 13:33:47;;;;;;;1.00;0.70;;;;;;;;;;6176947;23;20399;-85
2024/01/22 13:36:13;;;;;;;1.67;0.70;;;;;;;;;;6175090;23;20372;-85
2024/01/22 13:38:42;;;;;;;0.67;0.57;;;;;;;;;;6174069;23;20379;-84
2024/01/22 13:41:08;;;;;;;2.07;0.80;;;;;;;;;;6172620;23;20411;-88
2024/01/22 13:43:34;;;;;;;0.70;0.60;;;;;;;;;;6174243;23;20386;-88
2024/01/22 13:46:00;;;;;;;1.90;1.20;;;;;;;;;;6104027;23;20429;-88
2024/01/22 13:48:26;;;;;;;1.20;0.90;;;;;;;;;;6102840;23;20402;-83
2024/01/22 13:50:53;;;;;;;1.00;0.80;;;;;;;;;;6097360;23;20747;-84
2024/01/22 13:53:19;;;;;;;1.73;0.80;;;;;;;;;;6119617;23;20394;-84
2024/01/22 13:55:45;;;;;;;0.70;0.60;;;;;;;;;;6107000;23;20456;-84
2024/01/22 13:58:11;;;;;;;0.80;0.60;;;;;;;;;;6102053;23;20426;-84
2024/01/22 14:00:37;;;;;;;1.00;0.80;;;;;;;;;;6102754;23;20378;-84
2024/01/22 14:03:04;;;;;;;0.70;0.60;;;;;;;;;;6101691;23;20370;-83
2024/01/22 14:05:33;;;;;;;0.90;0.50;;;;;;;;;;6104033;23;20534;-84
2024/01/22 14:08:02;;;;;;;0.80;0.70;;;;;;;;;;6103408;23;20391;-82
2024/01/22 14:10:28;;;;;;;0.90;0.70;;;;;;;;;;6103379;23;20377;-84
2024/01/22 14:12:54;;;;;;;0.80;0.63;;;;;;;;;;6101584;23;20378;-85
2024/01/22 14:15:21;;;;;;;0.83;0.60;;;;;;;;;;6104986;23;20711;-84
2024/01/22 14:17:47;;;;;;;1.00;0.60;;;;;;;;;;6198021;23;20761;-85
2024/01/22 14:20:13;;;;;;;1.00;0.60;;;;;;;;;;6218759;23;20536;-83
2024/01/22 14:22:39;;;;;;;1.00;0.90;;;;;;;;;;6219261;23;20545;-84
2024/01/22 14:25:07;;;;;;;1.53;0.60;;;;;;;;;;6218668;23;20807;-84
2024/01/22 14:27:33;;;;;;;1.80;0.80;;;;;;;;;;6215677;23;20383;-85
2024/01/22 14:29:59;;;;;;;1.33;0.53;;;;;;;;;;6217685;23;20418;-85
2024/01/22 14:32:27;;;;;;;1.07;0.77;;;;;;;;;;6215254;23;20384;-84
2024/01/22 14:34:53;;;;;;;2.53;0.67;;;;;;;;;;6217561;23;20383;-84
2024/01/22 14:37:19;;;;;;;1.07;0.80;;;;;;;;;;6239336;23;20458;-85
2024/01/22 14:39:45;;;;;;;0.90;0.73;;;;;;;;;;6217334;23;20394;-84
2024/01/22 14:42:11;;;;;;;1.10;0.80;;;;;;;;;;6219918;23;20383;-85
2024/01/22 14:44:37;;;;;;;0.90;0.70;;;;;;;;;;6219281;23;20453;-84